Terryville, CT (06786)

6:32 AM EDT on July 31, 2016 (GMT -0400)
Near Terryville Fairground | | Change Station

Elev 820 ft 41.68 °N, 73.03 °W | Updated 5 minutes ago

Overcast
Overcast
68.7 °F
Feels Like 68.7 °F
N
3.7
Wind Variable Wind from ESE

Today
High -- | Low -- °F
--% Chance of Precip.
Yesterday
High -- | Low -- °F
Precip. -- in
Pressure 30.04 in
Visibility 5.0 miles
Clouds Mostly Cloudy 1000 ft
Mostly Cloudy 1400 ft
Overcast 2600 ft
Dew Point 67 °F
Humidity 94%
Rainfall 0.18 in
Snow Depth Not available.
5:45 AM 8:10 PM
Waning Crescent, 7% visible
SPECI KMMK 311025Z AUTO 00000KT 5SM BR BKN010 BKN014 OVC026 23/21 A3004 RMK AO2 CIG 007V011 T02330211 TSNO
Pressure 30.04 in
Visibility 5.0 miles
Clouds Mostly Cloudy 1000 ft
Mostly Cloudy 1400 ft
Overcast 2600 ft
Dew Point 67 °F
Humidity 94%
Rainfall 0.18 in
Snow Depth Not available.
5:45 AM 8:10 PM
Waning Crescent, 7% visible
SPECI KMMK 311025Z AUTO 00000KT 5SM BR BKN010 BKN014 OVC026 23/21 A3004 RMK AO2 CIG 007V011 T02330211 TSNO

10-Day Weather Forecast

Almanac

Astronomy

Jul. 31, 2016 Rise Set
Actual Time
Civil Twilight
Nautical Twilight
Astronomical Twilight
Moon
Length of Visible Light
Length of Day
Tomorrow will be .
, % of the Moon is Illuminated

Today's Extremes

State Highs State Lows

Community

WunderPhotos

Upload Photos

1,928,783 photos uploaded!

WunderBlog® & News

Nearby

Air Quality

  Air Quality AQ Index Pollutant
Not available.

Snow Depth

Station Depth Elevation

Earthquake Activity

City Distance Mag. Time & Date
Minimum magnitude displayed is 2.5.

Coastal Water Temperatures

Place Temperature

Stations

Nearby Weather Stations

Station Location Temp. Windchill Dew Point Humidity Wind Precip. Elev Updated Type
                   

Watches & Warnings

There are currently no watches in effect.